createdAt,value
2023-04-15T00:01:19.774Z,55.36
2023-04-15T00:03:52.778Z,55.44
2023-04-15T00:06:21.654Z,55.58
2023-04-15T00:08:50.757Z,55.65
2023-04-15T00:11:20.143Z,55.11
2023-04-15T00:13:48.669Z,54.98
2023-04-15T00:16:17.128Z,55.07
2023-04-15T00:18:46.135Z,55.09
2023-04-15T00:21:16.103Z,54.66
2023-04-15T00:23:44.556Z,54.51
2023-04-15T00:26:13.534Z,54.41
2023-04-15T00:28:42.650Z,54.27
2023-04-15T00:31:11.178Z,54.20
2023-04-15T00:33:40.214Z,53.92
2023-04-15T00:36:10.080Z,53.90
2023-04-15T00:38:41.011Z,53.20
2023-04-15T00:41:10.918Z,53.55
2023-04-15T00:43:39.476Z,53.88
2023-04-15T00:46:09.668Z,53.92
2023-04-15T00:48:39.074Z,53.63
2023-04-15T00:51:09.765Z,53.49
2023-04-15T00:53:38.239Z,53.51
2023-04-15T00:56:09.035Z,54.08
2023-04-15T00:58:37.935Z,54.06
2023-04-15T01:01:06.768Z,53.66
2023-04-15T01:03:35.638Z,53.39
2023-04-15T01:06:05.031Z,52.93
2023-04-15T01:08:33.456Z,52.57
2023-04-15T01:11:04.308Z,52.72
2023-04-15T01:13:35.630Z,52.94
2023-04-15T01:16:04.394Z,52.43
2023-04-15T01:18:33.106Z,52.98
2023-04-15T01:21:03.773Z,52.58
2023-04-15T01:23:32.837Z,52.57
2023-04-15T01:26:03.699Z,52.61
2023-04-15T01:28:32.455Z,52.64
2023-04-15T01:31:08.932Z,52.93
2023-04-15T01:33:39.390Z,53.40
2023-04-15T01:36:10.206Z,53.86
2023-04-15T01:38:38.840Z,53.70
2023-04-15T01:41:08.869Z,53.44
2023-04-15T01:43:37.949Z,53.84
2023-04-15T01:46:06.463Z,53.54
2023-04-15T01:48:35.041Z,53.95
2023-04-15T01:51:05.264Z,53.98
2023-04-15T01:53:34.804Z,54.92
2023-04-15T01:56:04.479Z,55.43
2023-04-15T01:58:34.290Z,55.57
2023-04-15T02:01:03.279Z,55.94
2023-04-15T02:03:33.838Z,55.70
2023-04-15T02:06:02.671Z,55.75
2023-04-15T02:08:31.008Z,56.18
2023-04-15T02:11:01.309Z,56.03
2023-04-15T02:13:30.437Z,56.11
2023-04-15T02:16:01.652Z,56.64
2023-04-15T02:18:30.115Z,56.67
2023-04-15T02:20:58.981Z,57.29
2023-04-15T02:23:27.499Z,57.58
2023-04-15T02:25:55.868Z,57.92
2023-04-15T02:28:24.390Z,58.29
2023-04-15T02:30:53.582Z,58.62
2023-04-15T02:33:23.716Z,59.01
2023-04-15T02:35:53.314Z,59.14
2023-04-15T02:38:21.891Z,59.72
2023-04-15T02:40:51.222Z,60.51
2023-04-15T02:43:19.586Z,60.76
2023-04-15T02:45:48.632Z,60.62
2023-04-15T02:48:19.597Z,60.76
2023-04-15T02:50:49.431Z,60.59
2023-04-15T02:53:20.073Z,60.62
2023-04-15T02:55:48.628Z,60.85
2023-04-15T02:58:17.238Z,61.08
2023-04-15T03:00:45.704Z,61.10
2023-04-15T03:03:15.414Z,61.89
2023-04-15T03:05:44.050Z,62.32
2023-04-15T03:08:15.103Z,62.64
2023-04-15T03:10:44.549Z,62.96
2023-04-15T03:13:12.901Z,63.66
2023-04-15T03:15:42.251Z,63.70
2023-04-15T03:18:10.941Z,63.75
2023-04-15T03:20:39.529Z,63.98
2023-04-15T03:23:08.484Z,63.89
2023-04-15T03:25:38.411Z,63.54
2023-04-15T03:28:08.602Z,63.84
2023-04-15T03:30:37.087Z,63.68
2023-04-15T03:33:05.680Z,63.38
2023-04-15T03:35:34.399Z,63.34
2023-04-15T03:38:02.740Z,62.32
2023-04-15T03:40:31.368Z,61.66
2023-04-15T03:43:01.179Z,61.04
2023-04-15T03:45:29.601Z,60.46
2023-04-15T03:48:07.348Z,60.04
2023-04-15T03:50:44.767Z,59.89
2023-04-15T03:53:13.169Z,59.29
2023-04-15T03:55:41.624Z,59.16
2023-04-15T03:58:13.116Z,58.95
2023-04-15T04:00:41.653Z,58.62
2023-04-15T04:03:10.257Z,58.66
2023-04-15T04:05:41.573Z,58.71
2023-04-15T04:08:10.007Z,58.72
2023-04-15T04:10:38.284Z,58.60
2023-04-15T04:13:06.700Z,59.09
2023-04-15T04:15:37.495Z,59.30
2023-04-15T04:18:06.186Z,59.58
2023-04-15T04:20:35.172Z,59.60
2023-04-15T04:23:03.551Z,60.48
2023-04-15T04:25:32.402Z,60.89
2023-04-15T04:28:00.842Z,60.89
2023-04-15T04:30:29.299Z,61.21
2023-04-15T04:32:59.286Z,62.35
2023-04-15T04:35:27.781Z,62.25
2023-04-15T04:37:56.727Z,62.87
2023-04-15T04:40:25.180Z,62.96
2023-04-15T04:42:53.762Z,63.41
2023-04-15T04:45:22.865Z,63.06
2023-04-15T04:47:51.373Z,63.51
2023-04-15T04:50:21.370Z,63.90
2023-04-15T04:52:49.668Z,63.87
2023-04-15T04:55:18.087Z,63.54
2023-04-15T04:57:46.840Z,63.84
2023-04-15T05:00:15.717Z,63.90
2023-04-15T05:02:44.382Z,64.26
2023-04-15T05:05:13.440Z,64.29
2023-04-15T05:07:43.394Z,64.53
2023-04-15T05:10:12.062Z,65.24
2023-04-15T05:12:40.462Z,64.85
2023-04-15T05:15:10.237Z,65.03
2023-04-15T05:17:38.821Z,65.82
2023-04-15T05:20:08.437Z,65.89
2023-04-15T05:22:36.831Z,66.15
2023-04-15T05:25:07.448Z,66.40
2023-04-15T05:27:35.860Z,66.67
2023-04-15T05:30:04.317Z,66.03
2023-04-15T05:32:32.766Z,66.78
2023-04-15T05:35:01.235Z,65.68
2023-04-15T05:37:29.671Z,66.02
2023-04-15T05:39:58.115Z,65.80
2023-04-15T05:42:27.944Z,66.16
2023-04-15T05:44:56.403Z,65.98
2023-04-15T05:47:24.869Z,66.50
2023-04-15T05:49:53.296Z,65.33
2023-04-15T05:52:21.684Z,66.23
2023-04-15T05:54:50.080Z,66.31
2023-04-15T05:57:18.540Z,65.92
2023-04-15T05:59:48.327Z,65.36
2023-04-15T06:02:16.898Z,64.15
2023-04-15T06:04:45.431Z,63.37
2023-04-15T06:07:13.879Z,63.12
2023-04-15T06:09:42.286Z,62.12
2023-04-15T06:12:12.404Z,61.92
2023-04-15T06:14:41.529Z,61.25
2023-04-15T06:17:11.516Z,61.29
2023-04-15T06:19:40.849Z,60.76
2023-04-15T06:22:09.332Z,60.11
2023-04-15T06:24:37.921Z,59.94
2023-04-15T06:27:06.320Z,59.96
2023-04-15T06:29:34.623Z,60.13
2023-04-15T06:32:03.066Z,58.27
2023-04-15T06:34:32.907Z,56.00
2023-04-15T06:37:01.521Z,55.48
2023-04-15T06:39:29.961Z,54.22
2023-04-15T06:41:58.311Z,53.14
2023-04-15T06:44:26.897Z,53.54
2023-04-15T06:46:55.304Z,52.37
2023-04-15T06:49:23.727Z,52.77
2023-04-15T06:51:53.575Z,52.75
2023-04-15T06:54:22.237Z,52.86
2023-04-15T06:56:51.674Z,49.96
2023-04-15T06:59:20.322Z,47.07
2023-04-15T07:01:48.937Z,45.85
2023-04-15T07:04:17.428Z,44.59
2023-04-15T07:06:46.196Z,43.58
2023-04-15T07:09:16.208Z,42.16
2023-04-15T07:11:44.630Z,40.50
2023-04-15T07:14:13.015Z,40.26
2023-04-15T07:16:41.432Z,38.84
2023-04-15T07:19:09.979Z,36.90
2023-04-15T07:21:41.259Z,36.03
2023-04-15T07:24:10.615Z,35.92
2023-04-15T07:26:40.521Z,35.16
2023-04-15T07:29:08.896Z,35.02
2023-04-15T07:31:38.000Z,34.81
2023-04-15T07:34:08.590Z,35.36
2023-04-15T07:36:37.028Z,35.44
2023-04-15T07:39:06.082Z,34.90
2023-04-15T07:41:34.968Z,34.13
2023-04-15T07:44:05.889Z,34.90
2023-04-15T07:46:34.228Z,35.31
2023-04-15T07:49:02.868Z,33.72
2023-04-15T07:51:32.448Z,32.42
2023-04-15T07:54:00.889Z,33.88
2023-04-15T07:56:29.228Z,37.51
2023-04-15T07:58:57.631Z,38.87
2023-04-15T08:01:27.770Z,37.57
2023-04-15T08:03:57.339Z,37.06
2023-04-15T08:06:25.867Z,38.07
2023-04-15T08:08:54.676Z,37.38
2023-04-15T08:11:23.235Z,38.50
2023-04-15T08:13:51.757Z,36.12
2023-04-15T08:16:22.596Z,33.57
2023-04-15T08:18:54.072Z,34.74
2023-04-15T08:21:22.996Z,33.69
2023-04-15T08:23:53.178Z,35.64
2023-04-15T08:26:22.943Z,33.77
2023-04-15T08:28:51.531Z,32.80
2023-04-15T08:31:21.025Z,33.24
2023-04-15T08:33:52.160Z,31.92
2023-04-15T08:36:22.340Z,31.01
2023-04-15T08:38:50.703Z,32.25
2023-04-15T08:41:24.192Z,33.04
2023-04-15T08:43:59.608Z,33.00
2023-04-15T08:46:28.299Z,32.03
2023-04-15T08:48:58.901Z,33.06
2023-04-15T08:51:29.984Z,34.74
2023-04-15T08:53:58.596Z,33.46
2023-04-15T08:56:29.500Z,33.61
2023-04-15T08:58:59.422Z,33.16
2023-04-15T09:01:28.217Z,32.94
2023-04-15T09:03:58.446Z,33.04
2023-04-15T09:06:28.488Z,33.49
2023-04-15T09:08:57.701Z,33.29
2023-04-15T09:11:26.209Z,34.06
2023-04-15T09:13:54.760Z,32.73
2023-04-15T09:16:23.279Z,34.11
2023-04-15T09:18:51.994Z,32.81
2023-04-15T09:21:20.565Z,33.11
2023-04-15T09:24:01.649Z,33.30
2023-04-15T09:26:35.100Z,33.90
2023-04-15T09:29:08.189Z,33.47
2023-04-15T09:31:36.967Z,33.55
2023-04-15T09:34:05.607Z,33.39
2023-04-15T09:36:52.923Z,33.26
2023-04-15T09:39:23.097Z,34.20
2023-04-15T09:42:07.302Z,34.04
2023-04-15T09:44:35.861Z,34.17
2023-04-15T09:47:04.354Z,35.06
2023-04-15T09:49:33.110Z,34.49
2023-04-15T09:52:06.258Z,34.77
2023-04-15T09:54:39.472Z,34.66
2023-04-15T09:57:10.220Z,34.63
2023-04-15T09:59:38.998Z,34.63
2023-04-15T10:02:08.723Z,35.36
2023-04-15T10:04:41.690Z,34.90
2023-04-15T10:07:13.019Z,33.97
2023-04-15T10:09:45.921Z,33.92
2023-04-15T10:12:14.776Z,33.99
2023-04-15T10:14:44.857Z,34.40
2023-04-15T10:17:14.171Z,34.08
2023-04-15T10:19:43.596Z,33.41
2023-04-15T10:22:12.351Z,32.93
2023-04-15T10:24:42.805Z,33.33
2023-04-15T10:27:12.308Z,33.59
2023-04-15T10:29:40.798Z,33.58
2023-04-15T10:32:10.935Z,33.91
2023-04-15T10:34:39.816Z,33.79
2023-04-15T10:37:11.868Z,33.74
2023-04-15T10:39:45.408Z,32.62
2023-04-15T10:42:15.564Z,32.96
2023-04-15T10:44:45.302Z,33.19
2023-04-15T10:47:15.641Z,32.33
2023-04-15T10:49:48.744Z,33.17
2023-04-15T10:52:18.865Z,32.01
2023-04-15T10:54:48.616Z,31.41
2023-04-15T10:57:22.780Z,31.40
2023-04-15T11:00:19.045Z,30.90
2023-04-15T11:02:49.259Z,30.61
2023-04-15T11:05:18.571Z,30.82
2023-04-15T11:07:53.054Z,30.77
2023-04-15T11:10:56.224Z,31.82
2023-04-15T11:13:33.211Z,31.18
2023-04-15T11:16:02.850Z,30.89
2023-04-15T11:18:33.126Z,30.17
2023-04-15T11:21:04.664Z,30.90
2023-04-15T11:23:36.817Z,30.31
2023-04-15T11:26:09.987Z,30.47
2023-04-15T11:28:39.172Z,30.47
2023-04-15T11:31:10.918Z,29.81
2023-04-15T11:33:40.690Z,29.85
2023-04-15T11:36:09.285Z,28.83
2023-04-15T11:38:38.111Z,29.01
2023-04-15T11:41:08.306Z,28.71
2023-04-15T11:43:36.820Z,28.83
2023-04-15T11:46:05.708Z,29.13
2023-04-15T11:48:35.894Z,28.01
2023-04-15T11:51:07.028Z,28.81
2023-04-15T11:53:41.049Z,28.39
2023-04-15T11:56:12.844Z,28.19
2023-04-15T11:58:42.620Z,27.89
2023-04-15T12:01:11.291Z,28.29
2023-04-15T12:03:41.239Z,29.85
2023-04-15T12:06:13.542Z,28.59
2023-04-15T12:09:06.213Z,27.63
2023-04-15T12:11:38.639Z,27.86
2023-04-15T12:14:10.091Z,27.81
2023-04-15T12:16:49.248Z,26.75
2023-04-15T12:19:23.478Z,27.58
2023-04-15T12:21:52.405Z,28.00
2023-04-15T12:24:23.089Z,26.04
2023-04-15T12:26:55.087Z,26.75
2023-04-15T12:29:28.054Z,25.87
2023-04-15T12:31:58.478Z,26.23
2023-04-15T12:34:32.091Z,26.11
2023-04-15T12:37:01.871Z,26.21
2023-04-15T12:39:32.684Z,26.71
2023-04-15T12:42:02.834Z,26.14
2023-04-15T12:44:31.723Z,25.26
2023-04-15T12:47:00.997Z,25.05
2023-04-15T12:49:29.940Z,24.92
2023-04-15T12:52:00.766Z,25.34
2023-04-15T12:54:29.745Z,25.83
2023-04-15T12:56:58.269Z,26.17
2023-04-15T12:59:28.318Z,25.71
2023-04-15T13:01:57.295Z,24.90
2023-04-15T13:04:25.862Z,25.70
2023-04-15T13:06:54.326Z,25.54
2023-04-15T13:09:22.935Z,25.95
2023-04-15T13:11:52.984Z,25.80
2023-04-15T13:14:21.505Z,25.41
2023-04-15T13:16:51.357Z,25.70
2023-04-15T13:19:19.848Z,25.20
2023-04-15T13:21:48.548Z,24.73
2023-04-15T13:24:16.929Z,25.07
2023-04-15T13:26:45.287Z,25.32
2023-04-15T13:29:14.266Z,25.72
2023-04-15T13:31:42.736Z,24.87
2023-04-15T13:34:12.564Z,24.64
2023-04-15T13:36:41.099Z,24.30
2023-04-15T13:39:09.494Z,24.87
2023-04-15T13:41:37.865Z,24.83
2023-04-15T13:44:06.714Z,25.42
2023-04-15T13:46:35.213Z,25.18
2023-04-15T13:49:03.674Z,24.93
2023-04-15T13:51:33.549Z,24.76
2023-04-15T13:54:02.141Z,24.98
2023-04-15T13:56:31.992Z,26.12
2023-04-15T13:59:02.424Z,24.36
2023-04-15T14:01:30.933Z,25.03
2023-04-15T14:03:59.568Z,24.73
2023-04-15T14:06:28.606Z,25.21
2023-04-15T14:08:58.574Z,24.52
2023-04-15T14:11:26.898Z,24.62
2023-04-15T14:13:55.283Z,25.35
2023-04-15T14:16:23.848Z,25.99
2023-04-15T14:18:52.204Z,25.74
2023-04-15T14:21:20.941Z,26.09
2023-04-15T14:23:49.369Z,24.66
2023-04-15T14:26:19.240Z,25.11
2023-04-15T14:28:48.590Z,25.01
2023-04-15T14:31:16.954Z,24.68
2023-04-15T14:33:45.497Z,25.14
2023-04-15T14:36:14.337Z,25.54
2023-04-15T14:38:42.890Z,24.69
2023-04-15T14:41:12.301Z,24.98
2023-04-15T14:43:42.195Z,24.82
2023-04-15T14:46:11.856Z,24.51
2023-04-15T14:48:40.333Z,24.95
2023-04-15T14:51:08.877Z,25.53
2023-04-15T14:53:38.227Z,24.98
2023-04-15T14:56:07.140Z,25.32
2023-04-15T14:58:35.587Z,25.47
2023-04-15T15:01:06.077Z,25.56
2023-04-15T15:03:35.521Z,25.61
2023-04-15T15:06:04.127Z,25.55
2023-04-15T15:08:32.535Z,25.83
2023-04-15T15:11:01.042Z,25.64
2023-04-15T15:13:31.457Z,25.20
2023-04-15T15:15:59.977Z,25.80
2023-04-15T15:18:29.804Z,25.64
2023-04-15T15:20:58.155Z,26.35
2023-04-15T15:23:26.574Z,26.37
2023-04-15T15:25:55.000Z,25.46
2023-04-15T15:28:23.499Z,25.41
2023-04-15T15:30:51.947Z,25.49
2023-04-15T15:33:20.888Z,25.68
2023-04-15T15:35:52.156Z,26.17
2023-04-15T15:38:20.724Z,25.97
2023-04-15T15:40:49.117Z,26.51
2023-04-15T15:43:17.687Z,26.39
2023-04-15T15:45:46.133Z,26.35
2023-04-15T15:48:14.602Z,26.97
2023-04-15T15:50:43.011Z,26.89
2023-04-15T15:53:18.053Z,27.16
2023-04-15T15:55:46.483Z,27.45
2023-04-15T15:58:14.867Z,26.88
2023-04-15T16:00:43.731Z,26.69
2023-04-15T16:03:13.263Z,27.08
2023-04-15T16:05:41.888Z,27.89
2023-04-15T16:08:10.315Z,27.70
2023-04-15T16:10:41.020Z,27.57
2023-04-15T16:13:10.760Z,28.12
2023-04-15T16:15:39.451Z,27.53
2023-04-15T16:18:07.878Z,27.74
2023-04-15T16:20:36.412Z,27.41
2023-04-15T16:23:13.379Z,27.95
2023-04-15T16:25:45.750Z,28.07
2023-04-15T16:28:25.599Z,28.64
2023-04-15T16:30:54.732Z,28.23
2023-04-15T16:33:23.245Z,28.03
2023-04-15T16:35:52.761Z,27.92
2023-04-15T16:38:21.318Z,28.21
2023-04-15T16:40:51.628Z,29.08
2023-04-15T16:43:20.188Z,28.61
2023-04-15T16:45:51.374Z,28.88
2023-04-15T16:48:20.706Z,29.34
2023-04-15T16:50:49.434Z,28.67
2023-04-15T16:53:18.087Z,28.74
2023-04-15T16:55:46.427Z,28.50
2023-04-15T16:58:16.355Z,28.98
2023-04-15T17:00:44.884Z,29.00
2023-04-15T17:03:13.452Z,29.12
2023-04-15T17:05:42.507Z,28.54
2023-04-15T17:08:10.890Z,28.18
2023-04-15T17:10:39.332Z,28.43
2023-04-15T17:13:08.414Z,29.10
2023-04-15T17:15:38.359Z,29.22
2023-04-15T17:18:06.755Z,28.95
2023-04-15T17:20:35.631Z,29.07
2023-04-15T17:23:04.913Z,29.21
2023-04-15T17:25:33.295Z,29.07
2023-04-15T17:28:02.262Z,28.37
2023-04-15T17:30:30.914Z,28.62
2023-04-15T17:33:00.907Z,28.57
2023-04-15T17:35:29.422Z,28.17
2023-04-15T17:37:57.875Z,28.89
2023-04-15T17:40:26.319Z,29.01
2023-04-15T17:42:55.064Z,29.22
2023-04-15T17:45:23.449Z,28.68
2023-04-15T17:47:51.836Z,28.89
2023-04-15T17:50:21.932Z,28.59
2023-04-15T17:52:50.455Z,28.65
2023-04-15T17:55:18.922Z,28.85
2023-04-15T17:57:47.686Z,29.43
2023-04-15T18:00:16.625Z,29.52
2023-04-15T18:02:45.332Z,29.52
2023-04-15T18:05:14.104Z,29.56
2023-04-15T18:07:44.761Z,29.83
2023-04-15T18:10:13.327Z,30.05
2023-04-15T18:12:41.701Z,29.99
2023-04-15T18:15:11.447Z,30.64
2023-04-15T18:17:39.839Z,30.89
2023-04-15T18:20:09.223Z,30.77
2023-04-15T18:22:37.643Z,31.28
2023-04-15T18:25:08.713Z,30.76
2023-04-15T18:27:39.579Z,31.19
2023-04-15T18:30:09.469Z,31.44
2023-04-15T18:32:38.179Z,31.56
2023-04-15T18:35:08.260Z,31.16
2023-04-15T18:37:36.810Z,31.70
2023-04-15T18:40:05.824Z,31.45
2023-04-15T18:42:35.629Z,31.60
2023-04-15T18:45:03.985Z,32.25
2023-04-15T18:47:33.389Z,32.60
2023-04-15T18:50:01.903Z,32.22
2023-04-15T18:52:33.862Z,32.28
2023-04-15T18:55:03.402Z,32.54
2023-04-15T18:57:35.150Z,32.56
2023-04-15T19:00:06.659Z,33.11
2023-04-15T19:02:35.281Z,33.08
2023-04-15T19:05:04.719Z,33.19
2023-04-15T19:07:33.307Z,33.04
2023-04-15T19:10:01.774Z,33.60
2023-04-15T19:12:30.229Z,33.95
2023-04-15T19:14:58.592Z,33.96
2023-04-15T19:17:28.447Z,34.38
2023-04-15T19:19:57.905Z,34.12
2023-04-15T19:22:26.521Z,34.32
2023-04-15T19:24:54.893Z,34.43
2023-04-15T19:27:23.404Z,34.51
2023-04-15T19:29:51.869Z,34.60
2023-04-15T19:32:21.334Z,34.77
2023-04-15T19:34:51.239Z,35.37
2023-04-15T19:37:19.883Z,35.48
2023-04-15T19:39:48.295Z,35.79
2023-04-15T19:42:17.262Z,35.38
2023-04-15T19:44:45.602Z,36.24
2023-04-15T19:47:14.058Z,35.97
2023-04-15T19:49:42.482Z,35.96
2023-04-15T19:52:12.424Z,35.94
2023-04-15T19:54:40.841Z,35.75
2023-04-15T19:57:09.433Z,36.02
2023-04-15T19:59:37.941Z,36.23
2023-04-15T20:02:06.479Z,36.15
2023-04-15T20:04:35.195Z,36.77
2023-04-15T20:07:04.749Z,36.70
2023-04-15T20:09:34.580Z,36.79
2023-04-15T20:12:47.752Z,37.45
2023-04-15T20:14:51.544Z,36.93
2023-04-15T20:17:19.997Z,36.69
2023-04-15T20:19:48.490Z,37.04
2023-04-15T20:22:17.154Z,37.56
2023-04-15T20:24:47.051Z,37.47
2023-04-15T20:27:15.615Z,37.51
2023-04-15T20:29:44.045Z,37.68
2023-04-15T20:32:12.982Z,37.71
2023-04-15T20:34:41.550Z,37.70
2023-04-15T20:37:10.080Z,38.09
2023-04-15T20:39:38.401Z,36.91
2023-04-15T20:42:10.379Z,37.62
2023-04-15T20:44:39.665Z,37.86
2023-04-15T20:47:08.537Z,38.06
2023-04-15T20:49:37.449Z,38.53
2023-04-15T20:52:06.835Z,38.73
2023-04-15T20:54:35.513Z,38.82
2023-04-15T20:57:03.921Z,38.49
2023-04-15T20:59:34.933Z,39.06
2023-04-15T21:02:03.740Z,39.16
2023-04-15T21:04:32.348Z,39.10
2023-04-15T21:07:00.767Z,38.98
2023-04-15T21:09:30.287Z,39.13
2023-04-15T21:12:01.539Z,39.67
2023-04-15T21:14:31.159Z,39.76
2023-04-15T21:17:03.426Z,39.68
2023-04-15T21:19:31.928Z,39.96
2023-04-15T21:22:00.381Z,39.99
2023-04-15T21:24:28.976Z,40.06
2023-04-15T21:26:57.902Z,39.97
2023-04-15T21:29:27.484Z,39.84
2023-04-15T21:31:57.016Z,40.10
2023-04-15T21:34:26.859Z,40.37
2023-04-15T21:36:55.325Z,40.36
2023-04-15T21:39:23.767Z,40.54
2023-04-15T21:41:52.136Z,40.30
2023-04-15T21:44:20.629Z,40.38
2023-04-15T21:46:49.043Z,40.25
2023-04-15T21:49:17.692Z,40.44
2023-04-15T21:51:48.102Z,40.74
2023-04-15T21:54:17.528Z,40.95
2023-04-15T21:56:46.230Z,40.42
2023-04-15T21:59:14.654Z,40.96
2023-04-15T22:01:43.461Z,40.73
2023-04-15T22:04:11.992Z,41.07
2023-04-15T22:06:40.622Z,41.37
2023-04-15T22:09:12.006Z,41.18
2023-04-15T22:11:42.024Z,41.68
2023-04-15T22:14:10.718Z,41.86
2023-04-15T22:16:39.198Z,41.70
2023-04-15T22:19:07.952Z,42.07
2023-04-15T22:21:36.616Z,41.82
2023-04-15T22:24:32.588Z,41.57
2023-04-15T22:26:55.217Z,41.97
2023-04-15T22:29:23.663Z,42.05
2023-04-15T22:31:52.226Z,42.17
2023-04-15T22:34:21.622Z,41.81
2023-04-15T22:36:50.307Z,42.20
2023-04-15T22:39:19.648Z,42.32
2023-04-15T22:41:48.531Z,42.21
2023-04-15T22:44:18.268Z,42.33
2023-04-15T22:46:46.668Z,42.29
2023-04-15T22:49:15.080Z,42.67
2023-04-15T22:51:43.555Z,42.41
2023-04-15T22:54:11.912Z,42.59
2023-04-15T22:56:40.212Z,42.36
2023-04-15T22:59:08.795Z,42.27
2023-04-15T23:01:39.255Z,42.47
2023-04-15T23:04:23.586Z,43.12
2023-04-15T23:06:55.924Z,42.82
2023-04-15T23:09:24.381Z,43.03
2023-04-15T23:11:52.792Z,43.24
2023-04-15T23:14:21.112Z,43.46
2023-04-15T23:16:52.068Z,43.28
2023-04-15T23:19:20.405Z,43.38
2023-04-15T23:21:49.086Z,43.93
2023-04-15T23:24:17.631Z,44.05
2023-04-15T23:26:46.082Z,43.88
2023-04-15T23:29:14.555Z,44.22
2023-04-15T23:31:43.195Z,44.20
2023-04-15T23:34:13.182Z,44.02
2023-04-15T23:36:41.677Z,44.16
2023-04-15T23:39:10.384Z,44.44
2023-04-15T23:41:39.060Z,44.85
2023-04-15T23:44:08.270Z,44.92
2023-04-15T23:46:36.865Z,44.87
2023-04-15T23:49:05.550Z,44.96
2023-04-15T23:51:35.485Z,45.04
2023-04-15T23:54:03.883Z,44.98
2023-04-15T23:56:32.357Z,45.24
2023-04-15T23:59:00.805Z,45.42
